NCAR-RAP Real-Time Weather Data

Output produced by METARs form (17 September 2019  16:16 UTC)
found at http://weather.rap.ucar.edu/surface/
 
KMCW 171553Z AUTO 16010KT 10SM CLR 26/19 A3007 RMK AO2 SLP169 T02560194
KMCW 171453Z AUTO 15011KT 9SM CLR 22/19 A3008 RMK AO2 SLP174 T02220189 51003
KMCW 171353Z AUTO 15010KT 9SM FEW008 21/18 A3008 RMK AO2 SLP174 T02110183
KMCW 171253Z AUTO 16009KT 9SM CLR 19/18 A3008 RMK AO2 SLP175 T01940178
KMCW 171153Z AUTO 15009KT 10SM CLR 19/17 A3007 RMK AO2 SLP171 T01890172 10206 20189 53005
KMCW 171053Z AUTO 15008KT 10SM CLR 19/17 A3006 RMK AO2 SLP168 T01890172
KMCW 170953Z AUTO 15009KT 10SM CLR 19/17 A3006 RMK AO2 SLP166 T01890172
KMCW 170853Z AUTO 15008KT 10SM CLR 19/17 A3006 RMK AO2 SLP165 T01940172 51002
KMCW 170753Z AUTO 16010KT 10SM CLR 20/17 A3005 RMK AO2 SLP164 T02000172
KMCW 170653Z AUTO 15008KT 10SM CLR 21/17 A3006 RMK AO2 SLP165 T02060172
KMCW 170553Z AUTO 16008KT 10SM CLR 21/18 A3005 RMK AO2 SLP163 T02060178 10261 20206 403000128 58002
KMCW 170453Z AUTO 16010KT 10SM CLR 22/18 A3006 RMK AO2 SLP167 T02170178
KMCW 170353Z AUTO 15008KT 10SM CLR 22/18 A3006 RMK AO2 SLP167 T02220183
KMCW 170253Z AUTO 15009KT 10SM CLR 23/19 A3006 RMK AO2 SLP167 T02280189 53006
KMCW 170053Z AUTO 14006KT 10SM CLR 25/22 A3004 RMK AO2 SLP160 T02500222
KMCW 162353Z AUTO 15008KT 10SM CLR 26/22 A3004 RMK AO2 SLP161 T02610222 10300 20261 52000
KMCW 162253Z AUTO 15010KT 10SM CLR 27/22 A3004 RMK AO2 SLP161 T02720222
KMCW 162153Z AUTO 16011G20KT 10SM CLR 28/22 A3003 RMK AO2 SLP159 T02830222
KMCW 162053Z AUTO 16016G23KT 10SM CLR 30/22 A3004 RMK AO2 SLP160 T03000222 56015
KMCW 161953Z AUTO 15014G22KT 10SM CLR 29/22 A3005 RMK AO2 SLP163 T02940217